Terminal Aerodrome Forecast
Issued by NWS

Home | Current Version | Previous Version | Text Only | Print | Product List | Glossary On
Versions: 1 2 3 4 5 6 7 8 9 10 11 12 13
000
FTUS42 TJSJ 272339
TAFJBQ
TAF
TJBQ 272339Z 2800/2824 08012KT P6SM SCT025 BKN060 BKN120
     FM280200 10004KT P6SM FEW025 SCT060 SCT120
     FM281450 06013KT P6SM VCSH SCT025 SCT040
      AMD NOT SKED 2802/2811=

USA.gov is the U.S. government's official web portal to all federal, state and local government web resources and services.